Terminal Aerodrome Forecast
Issued by NWS Missoula, MT

Home | Current Version | Previous Version | Text Only | Print | Product List | Glossary On
Versions: 1 2 3 4 5 6 7 8 9 10 11 12 13 14 15 16
092
FTUS45 KMSO 230539
TAFGPI
TAF
KGPI 230539Z 2306/2406 VRB03KT P6SM -SHRA SCT050 OVC060
     FM230800 17007KT P6SM VCSH BKN050
     FM240300 18007KT P6SM -SHRA SCT040 OVC050=

USA.gov is the U.S. government's official web portal to all federal, state and local government web resources and services.